createdAt,value
2022-11-30T00:02:09.325Z,5.20
2022-11-30T00:06:14.963Z,5.17
2022-11-30T00:10:19.670Z,5.11
2022-11-30T00:14:21.071Z,5.04
2022-11-30T00:18:22.607Z,4.97
2022-11-30T00:22:25.064Z,4.90
2022-11-30T00:26:28.816Z,4.87
2022-11-30T00:30:33.610Z,4.77
2022-11-30T00:34:35.025Z,4.74
2022-11-30T00:38:36.363Z,4.75
2022-11-30T00:42:37.700Z,4.76
2022-11-30T00:46:42.645Z,4.65
2022-11-30T00:50:48.064Z,4.66
2022-11-30T00:54:51.612Z,4.71
2022-11-30T00:58:55.035Z,4.77
2022-11-30T01:02:57.270Z,4.82
2022-11-30T01:07:00.168Z,4.85
2022-11-30T01:11:15.267Z,4.87
2022-11-30T01:15:19.109Z,4.86
2022-11-30T01:19:23.940Z,4.87
2022-11-30T01:23:25.407Z,4.90
2022-11-30T01:27:27.084Z,4.95
2022-11-30T01:31:31.512Z,4.88
2022-11-30T01:35:32.976Z,4.88
2022-11-30T01:39:39.092Z,4.89
2022-11-30T01:43:45.439Z,4.93
2022-11-30T01:47:51.126Z,4.97
2022-11-30T01:52:03.758Z,5.04
2022-11-30T01:56:06.334Z,5.05
2022-11-30T02:04:35.128Z,5.03
2022-11-30T02:08:38.956Z,4.96
2022-11-30T02:17:20.436Z,4.90
2022-11-30T02:21:36.955Z,4.96
2022-11-30T02:26:01.274Z,4.98
2022-11-30T02:30:08.069Z,4.99
2022-11-30T02:34:14.463Z,5.00
2022-11-30T02:38:18.986Z,4.98
2022-11-30T02:42:21.310Z,5.01
2022-11-30T02:46:32.886Z,5.00
2022-11-30T02:50:40.278Z,5.01
2022-11-30T02:54:44.465Z,5.03
2022-11-30T02:58:48.243Z,5.07
2022-11-30T03:02:55.397Z,5.10
2022-11-30T03:06:56.764Z,5.15
2022-11-30T03:11:01.335Z,5.17
2022-11-30T03:15:02.894Z,5.19
2022-11-30T03:19:04.367Z,5.23
2022-11-30T03:23:05.649Z,5.23
2022-11-30T03:27:07.021Z,5.26
2022-11-30T03:31:11.125Z,5.31
2022-11-30T03:35:12.714Z,5.30
2022-11-30T03:39:14.017Z,5.34
2022-11-30T03:43:15.338Z,5.36
2022-11-30T03:47:16.750Z,5.34
2022-11-30T03:51:18.223Z,5.36
2022-11-30T03:55:19.496Z,5.40
2022-11-30T03:59:21.784Z,5.44
2022-11-30T04:03:23.100Z,5.49
2022-11-30T04:07:24.527Z,5.52
2022-11-30T04:11:25.835Z,5.54
2022-11-30T04:15:27.425Z,5.56
2022-11-30T04:19:28.820Z,5.55
2022-11-30T04:23:31.386Z,5.55
2022-11-30T04:27:32.622Z,5.54
2022-11-30T04:31:33.986Z,5.52
2022-11-30T04:35:39.192Z,5.49
2022-11-30T04:39:40.472Z,5.48
2022-11-30T04:43:41.715Z,5.48
2022-11-30T04:47:43.450Z,5.49
2022-11-30T04:51:44.720Z,5.49
2022-11-30T04:55:45.981Z,5.48
2022-11-30T04:59:47.207Z,5.49
2022-11-30T05:03:48.495Z,5.48
2022-11-30T05:07:51.187Z,5.52
2022-11-30T05:11:52.631Z,5.57
2022-11-30T05:15:54.335Z,5.61
2022-11-30T05:19:56.244Z,5.62
2022-11-30T05:23:57.564Z,5.58
2022-11-30T05:27:59.471Z,5.57
2022-11-30T05:32:08.334Z,5.54
2022-11-30T05:36:10.847Z,5.56
2022-11-30T05:40:12.675Z,5.56
2022-11-30T05:44:15.035Z,5.54
2022-11-30T05:48:16.268Z,5.51
2022-11-30T05:52:17.582Z,5.50
2022-11-30T05:56:19.932Z,5.49
2022-11-30T06:00:21.734Z,5.50
2022-11-30T06:04:23.199Z,5.51
2022-11-30T06:08:25.116Z,5.50
2022-11-30T06:12:26.444Z,5.49
2022-11-30T06:16:28.143Z,5.47
2022-11-30T06:20:29.566Z,5.49
2022-11-30T06:24:32.646Z,5.54
2022-11-30T06:28:34.838Z,5.58
2022-11-30T06:32:36.177Z,5.63
2022-11-30T06:36:37.726Z,5.64
2022-11-30T06:40:40.714Z,5.66
2022-11-30T06:44:43.403Z,5.64
2022-11-30T06:48:51.295Z,5.63
2022-11-30T06:52:54.289Z,5.63
2022-11-30T06:57:01.483Z,5.62
2022-11-30T07:01:06.934Z,5.58
2022-11-30T07:05:08.343Z,5.55
2022-11-30T07:09:10.388Z,5.52
2022-11-30T07:13:12.314Z,5.47
2022-11-30T07:17:13.734Z,5.42
2022-11-30T07:21:15.055Z,5.43
2022-11-30T07:25:34.965Z,5.40
2022-11-30T07:29:36.246Z,5.42
2022-11-30T07:33:37.518Z,5.50
2022-11-30T07:37:38.912Z,5.58
2022-11-30T07:41:40.905Z,5.65
2022-11-30T07:45:42.264Z,5.67
2022-11-30T07:49:43.610Z,5.74
2022-11-30T07:53:45.049Z,5.80
2022-11-30T07:57:46.349Z,5.83
2022-11-30T08:01:47.804Z,5.84
2022-11-30T08:05:49.255Z,5.85
2022-11-30T08:09:51.913Z,5.88
2022-11-30T08:13:53.769Z,5.93
2022-11-30T08:17:55.277Z,5.96
2022-11-30T08:21:57.010Z,5.98
2022-11-30T08:26:06.615Z,6.00
2022-11-30T08:30:08.359Z,6.00
2022-11-30T08:34:11.550Z,6.05
2022-11-30T08:38:12.893Z,6.08
2022-11-30T08:42:14.141Z,6.14
2022-11-30T08:46:43.005Z,6.21
2022-11-30T08:50:37.645Z,6.33
2022-11-30T08:54:42.687Z,6.42
2022-11-30T08:58:44.756Z,6.50
2022-11-30T09:02:47.260Z,6.60
2022-11-30T09:06:51.403Z,6.69
2022-11-30T09:10:52.676Z,6.76
2022-11-30T09:14:58.050Z,6.86
2022-11-30T09:18:59.917Z,6.95
2022-11-30T09:23:01.309Z,7.06
2022-11-30T09:27:02.739Z,7.13
2022-11-30T09:31:04.097Z,7.20
2022-11-30T09:35:09.936Z,7.27
2022-11-30T09:39:14.506Z,7.35
2022-11-30T09:43:23.920Z,7.42
2022-11-30T09:47:31.861Z,7.44
2022-11-30T09:51:44.394Z,7.46
2022-11-30T09:55:45.970Z,7.47
2022-11-30T09:59:57.352Z,7.51
2022-11-30T10:03:58.863Z,7.56
2022-11-30T10:08:09.466Z,7.66
2022-11-30T10:12:17.504Z,7.69
2022-11-30T10:16:21.627Z,7.72
2022-11-30T10:20:25.968Z,7.75
2022-11-30T10:24:39.850Z,7.81
2022-11-30T10:28:47.386Z,7.87
2022-11-30T10:33:05.292Z,7.92
2022-11-30T10:37:15.237Z,7.97
2022-11-30T10:41:20.054Z,8.03
2022-11-30T10:45:22.135Z,8.04
2022-11-30T10:49:25.943Z,8.07
2022-11-30T10:53:27.319Z,8.13
2022-11-30T10:57:30.336Z,8.21
2022-11-30T11:01:31.932Z,8.20
2022-11-30T11:05:33.350Z,8.24
2022-11-30T11:09:38.407Z,8.26
2022-11-30T11:13:40.843Z,8.22
2022-11-30T11:17:42.184Z,8.19
2022-11-30T11:21:48.830Z,8.16
2022-11-30T11:25:53.433Z,8.15
2022-11-30T11:30:03.894Z,8.12
2022-11-30T11:34:06.246Z,8.14
2022-11-30T11:38:18.400Z,8.13
2022-11-30T11:42:22.385Z,8.15
2022-11-30T11:46:24.494Z,8.16
2022-11-30T11:55:05.452Z,8.16
2022-11-30T11:59:10.187Z,8.16
2022-11-30T12:03:19.296Z,8.19
2022-11-30T12:07:29.687Z,8.24
2022-11-30T12:11:44.822Z,8.27
2022-11-30T12:16:05.360Z,8.26
2022-11-30T12:20:23.544Z,8.30
2022-11-30T12:24:46.730Z,8.38
2022-11-30T12:28:47.943Z,8.47
2022-11-30T12:32:52.384Z,8.51
2022-11-30T12:37:07.995Z,8.53
2022-11-30T12:41:18.999Z,8.52
2022-11-30T12:45:30.580Z,8.54
2022-11-30T12:49:38.234Z,8.53
2022-11-30T12:53:42.545Z,8.55
2022-11-30T12:57:49.290Z,8.58
2022-11-30T13:01:56.574Z,8.59
2022-11-30T13:06:00.231Z,8.62
2022-11-30T13:10:26.531Z,8.63
2022-11-30T13:14:28.098Z,8.64
2022-11-30T13:18:30.219Z,8.64
2022-11-30T13:22:34.531Z,8.62
2022-11-30T13:26:54.699Z,8.63
2022-11-30T13:30:56.144Z,8.62
2022-11-30T13:35:16.291Z,8.59
2022-11-30T13:39:23.159Z,8.59
2022-11-30T13:43:26.606Z,8.61
2022-11-30T13:47:34.722Z,8.61
2022-11-30T13:51:38.265Z,8.63
2022-11-30T13:55:42.683Z,8.65
2022-11-30T13:59:53.959Z,8.65
2022-11-30T14:04:14.615Z,8.66
2022-11-30T14:08:29.460Z,8.65
2022-11-30T14:12:31.163Z,8.67
2022-11-30T14:16:32.605Z,8.64
2022-11-30T14:20:42.829Z,8.64
2022-11-30T14:24:45.765Z,8.65
2022-11-30T14:28:52.227Z,8.65
2022-11-30T14:33:01.818Z,8.64
2022-11-30T14:37:06.058Z,8.61
2022-11-30T14:41:18.081Z,8.59
2022-11-30T14:45:30.199Z,8.58
2022-11-30T14:49:31.472Z,8.56
2022-11-30T14:53:38.870Z,8.53
2022-11-30T14:57:46.612Z,8.50
2022-11-30T15:01:48.123Z,8.47
2022-11-30T15:05:57.375Z,8.43
2022-11-30T15:10:07.163Z,8.39
2022-11-30T15:14:09.775Z,8.33
2022-11-30T15:18:16.387Z,8.32
2022-11-30T15:22:22.516Z,8.31
2022-11-30T15:26:28.125Z,8.28
2022-11-30T15:30:29.596Z,8.26
2022-11-30T15:34:37.378Z,8.24
2022-11-30T15:38:39.130Z,8.23
2022-11-30T15:42:40.890Z,8.19
2022-11-30T15:46:54.212Z,8.17
2022-11-30T15:50:55.750Z,8.17
2022-11-30T15:55:03.458Z,8.12
2022-11-30T15:59:04.791Z,8.12
2022-11-30T16:03:10.484Z,8.13
2022-11-30T16:07:18.401Z,8.14
2022-11-30T16:11:20.163Z,8.14
2022-11-30T16:15:23.889Z,8.13
2022-11-30T16:19:25.243Z,8.11
2022-11-30T16:23:27.153Z,8.09
2022-11-30T16:27:28.434Z,8.10
2022-11-30T16:31:30.201Z,8.07
2022-11-30T16:35:36.366Z,8.04
2022-11-30T16:39:37.676Z,8.02
2022-11-30T16:43:39.604Z,8.01
2022-11-30T16:47:43.110Z,8.00
2022-11-30T16:51:44.426Z,7.97
2022-11-30T16:55:45.799Z,7.95
2022-11-30T16:59:47.371Z,7.96
2022-11-30T17:03:50.902Z,7.95
2022-11-30T17:07:52.451Z,7.91
2022-11-30T17:11:54.398Z,7.87
2022-11-30T17:15:55.683Z,7.83
2022-11-30T17:19:57.102Z,7.80
2022-11-30T17:23:58.537Z,7.77
2022-11-30T17:28:00.590Z,7.75
2022-11-30T17:32:01.882Z,7.74
2022-11-30T17:36:05.360Z,7.71
2022-11-30T17:40:08.236Z,7.68
2022-11-30T17:44:10.135Z,7.64
2022-11-30T17:48:11.757Z,7.60
2022-11-30T17:52:13.054Z,7.60
2022-11-30T17:56:15.364Z,7.54
2022-11-30T18:00:17.494Z,7.55
2022-11-30T18:04:18.766Z,7.55
2022-11-30T18:08:20.076Z,7.52
2022-11-30T18:12:21.455Z,7.49
2022-11-30T18:16:26.896Z,7.48
2022-11-30T18:20:28.743Z,7.49
2022-11-30T18:24:30.448Z,7.47
2022-11-30T18:28:31.755Z,7.46
2022-11-30T18:32:33.119Z,7.41
2022-11-30T18:36:34.713Z,7.36
2022-11-30T18:40:36.039Z,7.39
2022-11-30T18:44:37.319Z,7.38
2022-11-30T18:48:39.519Z,7.38
2022-11-30T18:52:40.778Z,7.39
2022-11-30T18:56:42.069Z,7.37
2022-11-30T19:00:43.315Z,7.35
2022-11-30T19:04:44.727Z,7.30
2022-11-30T19:08:47.629Z,7.30
2022-11-30T19:12:48.933Z,7.26
2022-11-30T19:16:51.299Z,7.20
2022-11-30T19:20:52.650Z,7.22
2022-11-30T19:24:53.962Z,7.18
2022-11-30T19:28:56.263Z,7.13
2022-11-30T19:32:57.574Z,7.07
2022-11-30T19:36:58.860Z,7.06
2022-11-30T19:41:04.190Z,7.09
2022-11-30T19:45:05.753Z,7.13
2022-11-30T19:49:08.526Z,7.14
2022-11-30T19:53:10.240Z,7.14
2022-11-30T19:57:11.467Z,7.14
2022-11-30T20:01:13.431Z,7.12
2022-11-30T20:05:15.305Z,7.12
2022-11-30T20:09:16.672Z,7.11
2022-11-30T20:13:17.954Z,7.09
2022-11-30T20:17:19.232Z,7.11
2022-11-30T20:21:31.031Z,7.09
2022-11-30T20:25:33.459Z,7.09
2022-11-30T20:29:34.735Z,7.09
2022-11-30T20:33:36.732Z,7.09
2022-11-30T20:37:38.047Z,7.07
2022-11-30T20:41:39.374Z,7.08
2022-11-30T20:45:40.661Z,7.06
2022-11-30T20:49:42.016Z,7.00
2022-11-30T20:53:43.331Z,7.00
2022-11-30T20:57:46.775Z,6.98
2022-11-30T21:01:48.171Z,6.99
2022-11-30T21:05:49.570Z,6.98
2022-11-30T21:09:50.869Z,6.96
2022-11-30T21:13:52.607Z,6.91
2022-11-30T21:17:53.969Z,6.89
2022-11-30T21:21:57.998Z,6.87
2022-11-30T21:26:06.668Z,6.88
2022-11-30T21:30:08.742Z,6.91
2022-11-30T21:34:10.150Z,6.95
2022-11-30T21:38:11.475Z,6.94
2022-11-30T21:42:12.782Z,6.90
2022-11-30T21:46:16.156Z,6.93
2022-11-30T21:50:18.553Z,6.95
2022-11-30T21:54:21.638Z,6.90
2022-11-30T21:58:22.976Z,6.90
2022-11-30T22:02:24.374Z,6.92
2022-11-30T22:06:26.687Z,6.94
2022-11-30T22:10:27.990Z,6.97
2022-11-30T22:14:29.278Z,6.94
2022-11-30T22:18:30.977Z,6.93
2022-11-30T22:22:32.271Z,6.94
2022-11-30T22:26:44.222Z,6.95
2022-11-30T22:30:45.538Z,6.96
2022-11-30T22:34:47.051Z,6.97
2022-11-30T22:38:52.890Z,6.94
2022-11-30T22:42:54.385Z,6.96
2022-11-30T22:46:55.828Z,6.98
2022-11-30T22:51:01.199Z,6.96
2022-11-30T22:55:02.643Z,6.95
2022-11-30T22:59:04.551Z,6.96
2022-11-30T23:03:05.934Z,6.98
2022-11-30T23:07:07.322Z,6.98
2022-11-30T23:11:10.366Z,6.97
2022-11-30T23:15:11.664Z,6.98
2022-11-30T23:19:13.409Z,6.95
2022-11-30T23:23:14.747Z,6.93
2022-11-30T23:27:16.014Z,6.90
2022-11-30T23:31:34.050Z,6.93
2022-11-30T23:35:44.661Z,6.93
2022-11-30T23:39:46.920Z,6.89
2022-11-30T23:43:48.693Z,6.91
2022-11-30T23:47:51.237Z,6.89
2022-11-30T23:51:52.538Z,6.89
2022-11-30T23:55:56.822Z,6.88
